createdAt,value
2018-03-14T00:00:20.736Z,8.60
2018-03-14T00:02:48.207Z,8.93
2018-03-14T00:05:15.632Z,8.95
2018-03-14T00:07:43.148Z,9.82
2018-03-14T00:10:10.572Z,9.30
2018-03-14T00:12:38.000Z,10.00
2018-03-14T00:15:05.557Z,10.02
2018-03-14T00:17:32.980Z,10.23
2018-03-14T00:20:00.500Z,10.27
2018-03-14T00:22:32.789Z,10.38
2018-03-14T00:25:00.223Z,10.40
2018-03-14T00:27:28.436Z,9.55
2018-03-14T00:29:55.884Z,10.38
2018-03-14T00:32:24.067Z,10.57
2018-03-14T00:34:52.285Z,11.52
2018-03-14T00:37:19.711Z,11.20
2018-03-14T00:39:47.224Z,11.75
2018-03-14T00:42:14.647Z,11.05
2018-03-14T00:44:42.167Z,11.38
2018-03-14T00:47:09.596Z,11.40
2018-03-14T00:49:37.824Z,10.93
2018-03-14T00:52:05.255Z,9.88
2018-03-14T00:54:33.474Z,11.60
2018-03-14T00:57:00.903Z,10.73
2018-03-14T00:59:28.413Z,10.98
2018-03-14T01:01:55.836Z,9.93
2018-03-14T01:04:23.356Z,10.05
2018-03-14T01:06:50.824Z,9.52
2018-03-14T01:09:18.292Z,9.57
2018-03-14T01:11:45.760Z,9.43
2018-03-14T01:14:13.176Z,9.05
2018-03-14T01:16:40.611Z,8.20
2018-03-14T01:19:08.032Z,10.43
2018-03-14T01:21:35.475Z,8.45
2018-03-14T01:24:02.900Z,8.77
2018-03-14T01:26:30.391Z,9.18
2018-03-14T01:28:57.852Z,9.30
2018-03-14T01:31:25.289Z,10.13
2018-03-14T01:33:52.787Z,10.20
2018-03-14T01:36:20.359Z,9.82
2018-03-14T01:38:48.528Z,8.77
2018-03-14T01:41:16.731Z,9.50
2018-03-14T01:43:44.155Z,9.82
2018-03-14T01:46:11.576Z,8.80
2018-03-14T01:48:38.995Z,8.77
2018-03-14T01:51:06.407Z,8.75
2018-03-14T01:53:33.831Z,8.40
2018-03-14T01:56:01.243Z,9.40
2018-03-14T01:58:29.735Z,9.50
2018-03-14T02:00:57.204Z,9.30
2018-03-14T02:03:24.619Z,8.85
2018-03-14T02:05:52.144Z,8.35
2018-03-14T02:08:19.617Z,8.07
2018-03-14T02:10:47.092Z,8.70
2018-03-14T02:13:14.564Z,8.07
2018-03-14T02:15:41.991Z,8.18
2018-03-14T02:18:09.408Z,8.00
2018-03-14T02:20:36.830Z,8.52
2018-03-14T02:23:05.007Z,8.13
2018-03-14T02:25:32.529Z,9.23
2018-03-14T02:27:59.943Z,9.15
2018-03-14T02:30:27.468Z,8.15
2018-03-14T02:32:54.932Z,8.23
2018-03-14T02:35:22.404Z,8.88
2018-03-14T02:37:49.872Z,8.63
2018-03-14T02:40:17.292Z,9.07
2018-03-14T02:42:44.808Z,9.02
2018-03-14T02:45:12.248Z,9.38
2018-03-14T02:47:39.752Z,8.50
2018-03-14T02:50:07.167Z,8.95
2018-03-14T02:52:34.583Z,8.93
2018-03-14T02:55:02.002Z,8.13
2018-03-14T02:57:29.431Z,8.38
2018-03-14T02:59:56.844Z,7.68
2018-03-14T03:02:24.277Z,8.40
2018-03-14T03:04:51.731Z,7.78
2018-03-14T03:07:19.159Z,7.95
2018-03-14T03:09:46.578Z,8.15
2018-03-14T03:12:14.000Z,8.38
2018-03-14T03:14:41.420Z,7.45
2018-03-14T03:17:08.843Z,7.93
2018-03-14T03:19:37.062Z,8.15
2018-03-14T03:22:04.487Z,8.02
2018-03-14T03:24:32.002Z,8.50
2018-03-14T03:26:59.472Z,8.70
2018-03-14T03:29:26.888Z,8.40
2018-03-14T03:31:54.420Z,8.25
2018-03-14T03:34:21.843Z,8.63
2018-03-14T03:36:49.263Z,7.78
2018-03-14T03:39:16.700Z,8.30
2018-03-14T03:41:44.884Z,7.82
2018-03-14T03:44:13.075Z,7.75
2018-03-14T03:46:41.257Z,8.43
2018-03-14T03:49:09.474Z,8.45
2018-03-14T03:51:36.940Z,8.23
2018-03-14T03:54:05.175Z,8.02
2018-03-14T03:56:32.592Z,8.50
2018-03-14T03:59:00.069Z,7.85
2018-03-14T04:01:27.484Z,7.97
2018-03-14T04:03:55.004Z,8.40
2018-03-14T04:06:23.168Z,8.32
2018-03-14T04:08:51.366Z,8.15
2018-03-14T04:11:18.844Z,7.93
2018-03-14T04:13:46.269Z,7.75
2018-03-14T04:16:13.791Z,8.18
2018-03-14T04:18:42.183Z,7.95
2018-03-14T04:21:09.659Z,8.05
2018-03-14T04:23:37.080Z,8.80
2018-03-14T04:26:04.590Z,8.88
2018-03-14T04:28:32.004Z,8.55
2018-03-14T04:31:00.227Z,8.55
2018-03-14T04:33:27.620Z,8.23
2018-03-14T04:35:55.047Z,8.52
2018-03-14T04:38:23.228Z,8.93
2018-03-14T04:40:50.736Z,10.00
2018-03-14T04:43:18.211Z,8.27
2018-03-14T04:45:45.636Z,8.30
2018-03-14T04:48:13.047Z,8.27
2018-03-14T04:50:40.540Z,9.82
2018-03-14T04:53:07.956Z,9.00
2018-03-14T04:55:36.147Z,8.75
2018-03-14T04:58:04.328Z,8.82
2018-03-14T05:00:32.540Z,9.07
2018-03-14T05:02:59.956Z,9.15
2018-03-14T05:05:27.375Z,9.00
2018-03-14T05:07:54.852Z,9.55
2018-03-14T05:10:23.016Z,9.55
2018-03-14T05:12:51.208Z,8.93
2018-03-14T05:15:19.416Z,8.48
2018-03-14T05:17:46.880Z,8.32
2018-03-14T05:20:14.295Z,8.98
2018-03-14T05:22:41.723Z,8.93
2018-03-14T05:25:09.148Z,8.63
2018-03-14T05:27:36.664Z,9.07
2018-03-14T05:30:04.080Z,8.50
2018-03-14T05:32:31.596Z,9.18
2018-03-14T05:34:59.070Z,8.75
2018-03-14T05:37:26.561Z,9.00
2018-03-14T05:39:53.960Z,9.25
2018-03-14T05:42:21.486Z,9.00
2018-03-14T05:44:48.903Z,8.70
2018-03-14T05:47:16.416Z,8.82
2018-03-14T05:49:43.889Z,8.15
2018-03-14T05:52:11.319Z,8.55
2018-03-14T05:54:38.836Z,9.55
2018-03-14T05:57:06.252Z,9.05
2018-03-14T05:59:33.772Z,8.50
2018-03-14T06:02:01.216Z,8.32
2018-03-14T06:04:29.429Z,8.30
2018-03-14T06:06:56.903Z,9.30
2018-03-14T06:09:24.323Z,9.60
2018-03-14T06:11:51.835Z,9.25
2018-03-14T06:14:20.021Z,9.23
2018-03-14T06:16:47.436Z,8.88
2018-03-14T06:19:14.856Z,9.13
2018-03-14T06:21:42.276Z,8.93
2018-03-14T06:24:11.212Z,9.32
2018-03-14T06:26:39.420Z,8.23
2018-03-14T06:29:06.843Z,9.73
2018-03-14T06:31:34.375Z,8.98
2018-03-14T06:34:01.835Z,8.93
2018-03-14T06:36:29.256Z,10.07
2018-03-14T06:38:56.768Z,9.35
2018-03-14T06:41:24.188Z,9.45
2018-03-14T06:43:51.611Z,9.38
2018-03-14T06:46:19.024Z,9.55
2018-03-14T06:48:47.215Z,9.65
2018-03-14T06:51:14.732Z,8.23
2018-03-14T06:53:42.207Z,9.70
2018-03-14T06:56:09.628Z,9.63
2018-03-14T06:58:49.640Z,10.38
2018-03-14T07:25:44.840Z,9.55
2018-03-14T07:28:12.263Z,9.18
2018-03-14T07:30:39.687Z,10.15
2018-03-14T07:33:07.107Z,9.82
2018-03-14T07:35:34.619Z,10.40
2018-03-14T07:38:02.041Z,9.73
2018-03-14T07:40:29.556Z,9.90
2018-03-14T07:42:56.975Z,9.63
2018-03-14T07:45:24.400Z,9.05
2018-03-14T07:47:51.888Z,10.00
2018-03-14T07:50:19.321Z,9.32
2018-03-14T07:52:47.514Z,9.45
2018-03-14T07:55:14.988Z,9.27
2018-03-14T07:57:42.421Z,9.68
2018-03-14T08:00:09.941Z,10.30
2018-03-14T08:02:37.363Z,9.30
2018-03-14T08:05:05.797Z,8.88
2018-03-14T08:07:33.220Z,9.52
2018-03-14T08:10:01.399Z,9.32
2018-03-14T08:12:28.928Z,9.63
2018-03-14T08:14:56.392Z,9.52
2018-03-14T08:17:23.856Z,9.85
2018-03-14T08:19:51.324Z,9.98
2018-03-14T08:22:18.800Z,9.95
2018-03-14T08:24:46.216Z,10.35
2018-03-14T08:27:13.647Z,11.15
2018-03-14T08:29:41.105Z,10.13
2018-03-14T08:32:08.523Z,11.32
2018-03-14T08:34:35.958Z,10.93
2018-03-14T08:37:03.372Z,10.90
2018-03-14T08:39:30.880Z,10.70
2018-03-14T08:41:58.296Z,11.57
2018-03-14T08:44:26.019Z,11.85
2018-03-14T08:46:53.451Z,11.43
2018-03-14T08:49:20.863Z,10.98
2018-03-14T08:51:48.331Z,12.13
2018-03-14T08:54:15.812Z,13.00
2018-03-14T08:56:43.183Z,12.02
2018-03-14T08:59:10.609Z,11.05
2018-03-14T09:01:38.828Z,11.90
2018-03-14T09:04:06.303Z,11.40
2018-03-14T09:06:33.719Z,12.82
2018-03-14T09:09:01.236Z,11.85
2018-03-14T09:11:28.656Z,13.15
2018-03-14T09:13:56.083Z,11.60
2018-03-14T09:16:23.555Z,12.07
2018-03-14T09:18:51.020Z,12.45
2018-03-14T09:21:18.468Z,12.52
2018-03-14T09:23:46.636Z,11.73
2018-03-14T09:26:14.860Z,9.02
2018-03-14T09:28:42.275Z,8.45
2018-03-14T09:31:09.708Z,9.27
2018-03-14T09:33:37.131Z,9.18
2018-03-14T09:36:04.568Z,8.98
2018-03-14T09:38:31.988Z,8.73
2018-03-14T09:41:00.191Z,7.72
2018-03-14T09:43:27.608Z,8.50
2018-03-14T09:45:55.032Z,7.55
2018-03-14T09:48:22.443Z,8.48
2018-03-14T09:50:49.976Z,8.20
2018-03-14T09:53:17.444Z,8.32
2018-03-14T09:55:44.872Z,8.27
2018-03-14T09:58:12.378Z,8.13
2018-03-14T10:00:39.800Z,8.38
2018-03-14T10:03:07.377Z,8.30
2018-03-14T10:05:34.788Z,8.10
2018-03-14T10:08:02.207Z,8.68
2018-03-14T10:10:29.728Z,8.70
2018-03-14T10:12:57.148Z,9.60
2018-03-14T10:15:24.580Z,8.45
2018-03-14T10:17:52.036Z,8.88
2018-03-14T10:20:19.456Z,8.48
2018-03-14T10:22:46.893Z,8.57
2018-03-14T10:25:14.320Z,9.73
2018-03-14T10:27:42.516Z,9.68
2018-03-14T10:30:09.936Z,8.70
2018-03-14T10:32:37.475Z,9.48
2018-03-14T10:35:04.940Z,9.57
2018-03-14T10:37:32.372Z,10.68
2018-03-14T10:40:00.592Z,11.27
2018-03-14T10:42:28.027Z,9.20
2018-03-14T10:44:55.442Z,8.50
2018-03-14T10:47:22.903Z,8.27
2018-03-14T10:49:50.323Z,7.65
2018-03-14T10:52:17.839Z,7.45
2018-03-14T10:54:45.308Z,8.60
2018-03-14T10:57:12.744Z,7.53
2018-03-14T10:59:40.248Z,7.70
2018-03-14T11:02:13.408Z,7.80
2018-03-14T11:04:40.828Z,8.02
2018-03-14T11:07:08.256Z,7.28
2018-03-14T11:09:36.439Z,7.72
2018-03-14T11:12:03.893Z,7.78
2018-03-14T11:14:31.291Z,8.30
2018-03-14T11:16:59.509Z,7.70
2018-03-14T11:19:26.974Z,8.43
2018-03-14T11:21:54.400Z,8.60
2018-03-14T11:24:22.635Z,9.02
2018-03-14T11:26:50.104Z,9.07
2018-03-14T11:29:17.530Z,9.05
2018-03-14T11:31:44.960Z,9.15
2018-03-14T11:34:12.412Z,8.40
2018-03-14T11:36:39.886Z,9.30
2018-03-14T11:39:07.309Z,8.20
2018-03-14T11:41:34.819Z,8.73
2018-03-14T11:44:02.245Z,8.80
2018-03-14T11:46:29.752Z,7.68
2018-03-14T11:48:57.176Z,7.87
2018-03-14T11:51:24.603Z,8.27
2018-03-14T11:53:52.020Z,8.18
2018-03-14T11:56:19.451Z,8.77
2018-03-14T11:58:46.867Z,9.50
2018-03-14T12:01:15.091Z,8.70
2018-03-14T12:03:42.512Z,9.05
2018-03-14T12:06:09.944Z,8.77
2018-03-14T12:08:37.359Z,8.73
2018-03-14T12:11:05.597Z,8.52
2018-03-14T12:13:33.012Z,8.85
2018-03-14T12:16:01.212Z,8.10
2018-03-14T12:18:29.404Z,8.65
2018-03-14T12:20:57.648Z,8.80
2018-03-14T12:23:25.080Z,7.55
2018-03-14T12:25:52.557Z,8.60
2018-03-14T12:28:20.791Z,7.62
2018-03-14T12:30:48.320Z,7.75
2018-03-14T12:33:15.789Z,8.63
2018-03-14T12:35:43.218Z,7.78
2018-03-14T12:38:11.413Z,7.40
2018-03-14T12:40:39.596Z,7.00
2018-03-14T12:43:07.788Z,7.10
2018-03-14T12:45:35.976Z,6.87
2018-03-14T12:48:04.192Z,6.40
2018-03-14T12:50:31.652Z,6.80
2018-03-14T12:52:59.076Z,6.97
2018-03-14T12:55:26.491Z,6.18
2018-03-14T12:57:53.964Z,6.65
2018-03-14T13:00:21.440Z,6.68
2018-03-14T13:02:48.860Z,6.40
2018-03-14T13:05:17.044Z,7.43
2018-03-14T13:07:44.560Z,7.37
2018-03-14T13:10:11.981Z,6.72
2018-03-14T13:12:39.412Z,6.05
2018-03-14T13:15:06.831Z,6.70
2018-03-14T13:17:35.026Z,6.07
2018-03-14T13:20:03.238Z,6.80
2018-03-14T13:22:30.712Z,6.35
2018-03-14T13:24:58.131Z,6.28
2018-03-14T13:27:25.647Z,5.70
2018-03-14T13:29:53.064Z,6.35
2018-03-14T13:32:20.604Z,5.37
2018-03-14T13:34:48.029Z,5.45
2018-03-14T13:37:16.244Z,4.80
2018-03-14T13:39:43.670Z,5.50
2018-03-14T13:42:11.241Z,5.40
2018-03-14T13:44:38.656Z,4.50
2018-03-14T13:47:06.084Z,5.53
2018-03-14T13:49:34.268Z,5.40
2018-03-14T13:52:02.456Z,5.10
2018-03-14T13:54:31.380Z,4.72
2018-03-14T13:56:59.588Z,5.62
2018-03-14T13:59:27.056Z,4.70
2018-03-14T14:01:54.484Z,5.62
2018-03-14T14:04:21.909Z,5.53
2018-03-14T14:06:49.332Z,6.05
2018-03-14T14:09:17.552Z,4.75
2018-03-14T14:11:45.036Z,5.22
2018-03-14T14:14:12.455Z,5.32
2018-03-14T14:16:39.893Z,4.87
2018-03-14T14:19:07.320Z,5.20
2018-03-14T14:21:35.547Z,4.18
2018-03-14T14:24:02.959Z,4.78
2018-03-14T14:26:31.165Z,4.87
2018-03-14T14:28:58.580Z,5.70
2018-03-14T14:31:26.017Z,5.53
2018-03-14T14:33:53.483Z,6.05
2018-03-14T14:36:20.901Z,6.00
2018-03-14T14:38:48.420Z,6.10
2018-03-14T14:41:15.840Z,5.55
2018-03-14T14:43:44.036Z,5.87
2018-03-14T14:46:12.308Z,6.25
2018-03-14T14:48:39.735Z,5.47
2018-03-14T14:51:07.151Z,5.03
2018-03-14T14:53:34.602Z,5.03
2018-03-14T14:56:01.989Z,5.00
2018-03-14T14:58:29.411Z,4.90
2018-03-14T15:00:56.836Z,4.50
2018-03-14T15:03:25.087Z,4.45
2018-03-14T15:05:53.216Z,3.97
2018-03-14T15:08:20.772Z,7.12
2018-03-14T15:10:48.194Z,4.95
2018-03-14T15:13:15.636Z,4.40
2018-03-14T15:15:43.824Z,4.00
2018-03-14T15:18:12.047Z,3.90
2018-03-14T15:20:39.514Z,3.87
2018-03-14T15:23:06.927Z,3.78
2018-03-14T15:25:34.348Z,3.25
2018-03-14T15:28:01.777Z,3.30
2018-03-14T15:30:29.996Z,3.45
2018-03-14T15:32:57.420Z,3.55
2018-03-14T15:35:24.836Z,4.00
2018-03-14T15:37:52.264Z,3.72
2018-03-14T15:40:21.187Z,3.83
2018-03-14T15:42:49.406Z,4.05
2018-03-14T15:45:16.869Z,4.55
2018-03-14T15:47:44.300Z,6.05
2018-03-14T15:50:12.496Z,5.72
2018-03-14T15:52:40.716Z,5.10
2018-03-14T15:55:08.131Z,4.90
2018-03-14T15:57:35.559Z,5.10
2018-03-14T16:00:02.982Z,7.03
2018-03-14T16:02:31.179Z,6.97
2018-03-14T16:04:59.371Z,23.70
2018-03-14T16:07:27.576Z,8.75
2018-03-14T16:09:55.000Z,4.47
2018-03-14T16:12:22.576Z,3.72
2018-03-14T16:14:49.997Z,4.15
2018-03-14T16:17:17.467Z,4.68
2018-03-14T16:19:44.927Z,4.62
2018-03-14T16:22:12.351Z,5.15
2018-03-14T16:24:39.971Z,5.53
2018-03-14T16:27:08.148Z,6.22
2018-03-14T16:29:35.625Z,5.95
2018-03-14T16:32:03.100Z,5.62
2018-03-14T16:34:30.519Z,6.18
2018-03-14T16:36:57.952Z,6.28
2018-03-14T16:39:25.427Z,6.00
2018-03-14T16:41:52.815Z,5.47
2018-03-14T16:44:20.244Z,5.32
2018-03-14T16:46:47.723Z,5.25
2018-03-14T16:49:15.176Z,4.82
2018-03-14T16:51:42.595Z,5.18
2018-03-14T16:54:10.783Z,5.20
2018-03-14T16:56:38.200Z,5.28
2018-03-14T16:59:05.654Z,4.75
2018-03-14T17:01:33.058Z,5.55
2018-03-14T17:04:00.509Z,4.95
2018-03-14T17:06:27.926Z,4.40
2018-03-14T17:08:55.358Z,4.20
2018-03-14T17:11:22.772Z,4.35
2018-03-14T17:13:50.204Z,4.22
2018-03-14T17:16:17.616Z,4.43
2018-03-14T17:18:46.808Z,4.80
2018-03-14T17:21:15.732Z,4.82
2018-03-14T17:23:43.924Z,5.18
2018-03-14T17:26:12.113Z,4.20
2018-03-14T17:28:40.304Z,5.15
2018-03-14T17:31:08.620Z,4.07
2018-03-14T17:33:36.101Z,3.60
2018-03-14T17:36:03.560Z,4.05
2018-03-14T17:38:31.033Z,3.70
2018-03-14T17:40:58.496Z,4.30
2018-03-14T17:43:25.928Z,4.43
2018-03-14T17:45:53.353Z,4.35
2018-03-14T17:48:20.780Z,4.65
2018-03-14T17:50:48.997Z,4.78
2018-03-14T17:53:16.464Z,4.07
2018-03-14T17:55:43.880Z,4.75
2018-03-14T17:58:11.312Z,4.18
2018-03-14T18:00:38.757Z,6.62
2018-03-14T18:03:06.186Z,5.43
2018-03-14T18:05:33.649Z,4.20
2018-03-14T18:08:01.120Z,4.70
2018-03-14T18:10:28.548Z,4.40
2018-03-14T18:12:56.015Z,4.65
2018-03-14T18:15:23.454Z,5.40
2018-03-14T18:17:50.861Z,5.18
2018-03-14T18:20:18.272Z,4.72
2018-03-14T18:22:45.802Z,4.95
2018-03-14T18:25:13.207Z,4.93
2018-03-14T18:27:40.735Z,6.55
2018-03-14T18:30:08.153Z,7.87
2018-03-14T18:32:37.095Z,12.43
2018-03-14T18:35:04.579Z,8.35
2018-03-14T18:37:32.003Z,7.50
2018-03-14T18:39:59.424Z,6.45
2018-03-14T18:42:26.836Z,5.53
2018-03-14T18:44:54.437Z,7.15
2018-03-14T18:47:22.643Z,7.07
2018-03-14T18:49:50.073Z,6.97
2018-03-14T18:52:17.480Z,6.05
2018-03-14T18:54:44.949Z,6.65
2018-03-14T18:57:12.362Z,7.07
2018-03-14T18:59:39.780Z,6.43
2018-03-14T19:02:07.293Z,6.82
2018-03-14T19:04:35.829Z,7.85
2018-03-14T19:07:04.040Z,8.43
2018-03-14T19:09:31.463Z,7.82
2018-03-14T19:11:58.883Z,7.80
2018-03-14T19:14:26.347Z,7.85
2018-03-14T19:16:53.766Z,8.52
2018-03-14T19:19:21.287Z,7.60
2018-03-14T19:21:48.709Z,8.20
2018-03-14T19:24:16.225Z,8.20
2018-03-14T19:26:43.642Z,9.23
2018-03-14T19:29:11.069Z,8.65
2018-03-14T19:31:38.638Z,8.55
2018-03-14T19:34:06.117Z,8.02
2018-03-14T19:36:33.531Z,8.15
2018-03-14T19:39:01.145Z,9.18
2018-03-14T19:41:28.472Z,8.25
2018-03-14T19:43:55.896Z,7.72
2018-03-14T19:46:23.320Z,8.50
2018-03-14T19:48:51.506Z,7.70
2018-03-14T19:51:19.683Z,8.75
2018-03-14T19:53:47.107Z,7.90
2018-03-14T19:56:14.532Z,8.23
2018-03-14T19:58:42.733Z,8.32
2018-03-14T20:01:10.936Z,8.02
2018-03-14T20:03:38.361Z,8.35
2018-03-14T20:06:05.844Z,7.93
2018-03-14T20:08:33.244Z,7.72
2018-03-14T20:11:00.620Z,8.75
2018-03-14T20:13:28.043Z,7.93
2018-03-14T20:15:56.264Z,7.50
2018-03-14T20:18:23.687Z,8.75
2018-03-14T20:20:51.217Z,8.20
2018-03-14T20:23:18.676Z,8.35
2018-03-14T20:25:46.856Z,8.93
2018-03-14T20:28:14.275Z,9.27
2018-03-14T20:30:41.705Z,9.05
2018-03-14T20:33:09.159Z,8.75
2018-03-14T20:35:37.316Z,8.43
2018-03-14T20:38:04.740Z,8.57
2018-03-14T20:40:32.200Z,8.65
2018-03-14T20:42:59.673Z,8.20
2018-03-14T20:45:27.132Z,8.57
2018-03-14T20:47:54.559Z,7.82
2018-03-14T20:50:22.079Z,8.95
2018-03-14T20:52:49.547Z,8.15
2018-03-14T20:55:17.020Z,7.57
2018-03-14T20:57:44.489Z,8.02
2018-03-14T21:00:11.915Z,8.18
2018-03-14T21:02:40.196Z,8.07
2018-03-14T21:05:07.580Z,8.85
2018-03-14T21:07:35.757Z,8.02
2018-03-14T21:10:03.179Z,7.68
2018-03-14T21:12:30.607Z,8.45
2018-03-14T21:14:58.830Z,8.13
2018-03-14T21:17:26.282Z,8.27
2018-03-14T21:19:53.764Z,8.88
2018-03-14T21:22:21.182Z,9.10
2018-03-14T21:24:48.608Z,8.13
2018-03-14T21:27:16.027Z,8.15
2018-03-14T21:29:43.516Z,8.23
2018-03-14T21:32:11.736Z,7.68
2018-03-14T21:34:39.201Z,8.88
2018-03-14T21:37:06.673Z,8.02
2018-03-14T21:39:34.237Z,9.02
2018-03-14T21:42:02.412Z,8.68
2018-03-14T21:44:29.828Z,8.80
2018-03-14T21:46:57.258Z,9.07
2018-03-14T21:49:24.673Z,8.68
2018-03-14T21:51:52.201Z,8.90
2018-03-14T21:54:19.672Z,8.50
2018-03-14T21:56:47.144Z,9.38
2018-03-14T21:59:14.559Z,9.95
2018-03-14T22:01:41.989Z,10.00
2018-03-14T22:04:09.407Z,10.95
2018-03-14T22:06:36.960Z,10.15
2018-03-14T22:09:04.347Z,10.32
2018-03-14T22:11:31.934Z,11.07
2018-03-14T22:13:59.330Z,11.18
2018-03-14T22:16:26.739Z,10.68
2018-03-14T22:18:54.273Z,10.55
2018-03-14T22:21:21.715Z,11.90
2018-03-14T22:23:49.932Z,11.27
2018-03-14T22:26:17.352Z,12.60
2018-03-14T22:28:45.735Z,12.37
2018-03-14T22:31:13.156Z,11.40
2018-03-14T22:33:40.583Z,11.50
2018-03-14T22:36:08.093Z,12.75
2018-03-14T22:38:35.525Z,12.32
2018-03-14T22:41:02.964Z,12.05
2018-03-14T22:43:30.400Z,11.68
2018-03-14T22:45:57.816Z,13.20
2018-03-14T22:48:26.063Z,12.30
2018-03-14T22:50:53.484Z,11.65
2018-03-14T22:53:20.911Z,12.57
2018-03-14T22:55:48.333Z,12.60
2018-03-14T22:58:16.529Z,12.93
2018-03-14T23:00:44.708Z,12.68
2018-03-14T23:03:12.899Z,13.25
2018-03-14T23:05:41.091Z,12.57
2018-03-14T23:08:09.283Z,12.50
2018-03-14T23:10:36.772Z,12.82
2018-03-14T23:13:04.200Z,13.23
2018-03-14T23:15:31.619Z,13.50
2018-03-14T23:17:59.040Z,12.75
2018-03-14T23:20:27.240Z,12.82
2018-03-14T23:22:55.452Z,13.98
2018-03-14T23:25:22.919Z,13.38
2018-03-14T23:27:50.348Z,12.93
2018-03-14T23:30:17.856Z,12.57
2018-03-14T23:32:45.272Z,13.82
2018-03-14T23:35:12.796Z,12.43
2018-03-14T23:37:40.268Z,12.43
2018-03-14T23:40:07.696Z,12.05
2018-03-14T23:42:35.217Z,12.68
2018-03-14T23:45:02.641Z,12.43
2018-03-14T23:47:30.832Z,13.05
2018-03-14T23:49:59.052Z,13.52
2018-03-14T23:52:26.521Z,13.70
2018-03-14T23:54:54.704Z,13.07
2018-03-14T23:57:22.119Z,13.00
2018-03-14T23:59:49.552Z,12.80
